Time,TemperatureF,DewpointF,PressureIn,WindDirection,WindDirectionDegrees,WindSpeedMPH,WindSpeedGustMPH,Humidity,HourlyPrecipIn,Conditions,Clouds,dailyrainin,SolarRadiationWatts/m^2,SoftwareType,DateUTC
2013-05-02 00:02:00,78.0,68.0,-100.00,North,8,7.0,13.0,71,0.00,,,0.00,0.000000,,2013-05-02 10:02:00,
2013-05-02 00:12:00,78.0,68.0,-100.00,North,8,7.0,13.0,71,0.00,,,0.00,0.000000,,2013-05-02 10:12:00,
2013-05-02 00:22:00,78.0,68.0,-100.00,North,8,7.0,13.0,71,0.00,,,0.00,0.000000,,2013-05-02 10:22:00,
2013-05-02 00:32:00,78.0,68.0,-100.00,North,8,7.0,13.0,71,0.00,,,0.00,0.000000,,2013-05-02 10:32:00,
2013-05-02 01:02:00,76.0,65.0,-100.00,North,10,7.0,16.0,68,0.00,,,0.00,1.000000,,2013-05-02 11:02:00,
2013-05-02 01:11:00,76.0,65.0,-100.00,North,10,7.0,16.0,68,0.00,,,0.00,1.000000,,2013-05-02 11:11:00,
2013-05-02 01:21:00,76.0,65.0,-100.00,North,10,7.0,16.0,68,0.00,,,0.00,1.000000,,2013-05-02 11:21:00,
2013-05-02 01:32:00,76.0,65.0,-100.00,North,10,7.0,16.0,68,0.00,,,0.00,1.000000,,2013-05-02 11:32:00,
2013-05-02 01:52:00,77.0,66.0,-100.00,North,9,7.0,12.0,70,0.00,,,0.00,1.000000,,2013-05-02 11:52:00,
2013-05-02 02:01:00,77.0,66.0,-100.00,North,9,7.0,12.0,70,0.00,,,0.00,1.000000,,2013-05-02 12:01:00,
2013-05-02 02:11:00,77.0,66.0,-100.00,North,9,7.0,12.0,70,0.00,,,0.00,1.000000,,2013-05-02 12:11:00,
2013-05-02 02:21:00,77.0,66.0,-100.00,North,9,7.0,12.0,70,0.00,,,0.00,1.000000,,2013-05-02 12:21:00,
2013-05-02 02:32:00,77.0,66.0,-100.00,North,9,7.0,12.0,70,0.00,,,0.00,1.000000,,2013-05-02 12:32:00,
2013-05-02 03:01:00,75.0,65.0,-100.00,North,8,8.0,13.0,70,0.00,,,0.00,1.000000,,2013-05-02 13:01:00,
2013-05-02 03:11:00,75.0,65.0,-100.00,North,8,8.0,13.0,70,0.00,,,0.00,1.000000,,2013-05-02 13:11:00,
2013-05-02 03:21:00,75.0,65.0,-100.00,North,8,8.0,13.0,70,0.00,,,0.00,1.000000,,2013-05-02 13:21:00,
2013-05-02 03:31:00,75.0,65.0,-100.00,North,8,8.0,13.0,70,0.00,,,0.00,1.000000,,2013-05-02 13:31:00,
2013-05-02 04:02:00,77.0,67.0,-100.00,North,9,7.0,11.0,72,0.00,,,0.00,1.000000,,2013-05-02 14:02:00,
2013-05-02 04:11:00,77.0,67.0,-100.00,North,9,7.0,11.0,72,0.00,,,0.00,1.000000,,2013-05-02 14:11:00,
2013-05-02 04:21:00,77.0,67.0,-100.00,North,9,7.0,11.0,72,0.00,,,0.00,1.000000,,2013-05-02 14:21:00,
2013-05-02 04:31:00,77.0,67.0,-100.00,North,9,7.0,11.0,72,0.00,,,0.00,1.000000,,2013-05-02 14:31:00,
2013-05-02 05:02:00,76.0,67.0,-100.00,North,8,6.0,12.0,74,0.00,,,0.00,1.000000,,2013-05-02 15:02:00,
2013-05-02 05:12:00,76.0,67.0,-100.00,North,8,6.0,12.0,74,0.00,,,0.00,1.000000,,2013-05-02 15:12:00,
2013-05-02 05:21:00,76.0,67.0,-100.00,North,8,6.0,12.0,74,0.00,,,0.00,1.000000,,2013-05-02 15:21:00,
2013-05-02 05:32:00,76.0,67.0,-100.00,North,8,6.0,12.0,74,0.00,,,0.00,1.000000,,2013-05-02 15:32:00,
2013-05-02 06:02:00,76.0,66.0,-100.00,North,10,6.0,11.0,72,0.00,,,0.00,1.000000,,2013-05-02 16:02:00,
2013-05-02 06:13:00,76.0,66.0,-100.00,North,10,6.0,11.0,72,0.00,,,0.00,1.000000,,2013-05-02 16:13:00,
2013-05-02 06:22:00,76.0,66.0,-100.00,North,10,6.0,11.0,72,0.00,,,0.00,1.000000,,2013-05-02 16:22:00,
2013-05-02 06:32:00,76.0,66.0,-100.00,North,10,6.0,11.0,72,0.00,,,0.00,1.000000,,2013-05-02 16:32:00,
2013-05-02 07:02:00,77.0,67.0,-100.00,North,10,5.0,15.0,72,0.00,,,0.00,9.000000,,2013-05-02 17:02:00,
2013-05-02 07:12:00,77.0,67.0,-100.00,North,10,5.0,15.0,72,0.00,,,0.00,9.000000,,2013-05-02 17:12:00,
2013-05-02 07:22:00,77.0,67.0,-100.00,North,10,5.0,15.0,72,0.00,,,0.00,9.000000,,2013-05-02 17:22:00,
2013-05-02 07:31:00,77.0,67.0,-100.00,North,10,5.0,15.0,72,0.00,,,0.00,9.000000,,2013-05-02 17:31:00,
2013-05-02 08:01:00,78.0,69.0,-100.00,NNE,29,7.0,15.0,73,0.01,,,0.01,53.000000,,2013-05-02 18:01:00,
2013-05-02 08:11:00,78.0,69.0,-100.00,NNE,29,7.0,15.0,73,0.01,,,0.01,53.000000,,2013-05-02 18:11:00,
2013-05-02 08:21:00,78.0,69.0,-100.00,NNE,29,7.0,15.0,73,0.01,,,0.01,53.000000,,2013-05-02 18:21:00,
2013-05-02 08:31:00,78.0,69.0,-100.00,NNE,29,7.0,15.0,73,0.01,,,0.01,53.000000,,2013-05-02 18:31:00,
2013-05-02 09:01:00,80.0,71.0,-100.00,NNE,14,6.0,17.0,74,0.00,,,-99.99,281.000000,,2013-05-02 19:01:00,
2013-05-02 09:11:00,80.0,71.0,-100.00,NNE,14,6.0,17.0,74,0.00,,,-99.99,281.000000,,2013-05-02 19:11:00,
2013-05-02 09:21:00,80.0,71.0,-100.00,NNE,14,6.0,17.0,74,0.00,,,-99.99,281.000000,,2013-05-02 19:21:00,
2013-05-02 09:31:00,80.0,71.0,-100.00,NNE,14,6.0,17.0,74,0.00,,,-99.99,281.000000,,2013-05-02 19:31:00,
2013-05-02 10:02:00,87.0,71.0,-100.00,NNE,22,8.0,15.0,60,0.00,,,0.01,497.000000,,2013-05-02 20:02:00,
2013-05-02 10:11:00,87.0,71.0,-100.00,NNE,22,8.0,15.0,60,0.00,,,0.01,497.000000,,2013-05-02 20:11:00,
2013-05-02 10:22:00,87.0,71.0,-100.00,NNE,22,8.0,15.0,60,0.00,,,0.01,497.000000,,2013-05-02 20:22:00,
2013-05-02 10:32:00,87.0,71.0,-100.00,NNE,22,8.0,15.0,60,0.00,,,0.01,497.000000,,2013-05-02 20:32:00,
2013-05-02 11:01:00,86.0,63.0,-100.00,NNE,20,5.0,13.0,47,0.00,,,0.01,591.000000,,2013-05-02 21:01:00,
2013-05-02 11:11:00,86.0,63.0,-100.00,NNE,20,5.0,13.0,47,0.00,,,0.01,591.000000,,2013-05-02 21:11:00,
2013-05-02 11:21:00,86.0,63.0,-100.00,NNE,20,5.0,13.0,47,0.00,,,0.01,591.000000,,2013-05-02 21:21:00,
2013-05-02 11:33:00,86.0,63.0,-100.00,NNE,20,5.0,13.0,47,0.00,,,0.01,591.000000,,2013-05-02 21:33:00,
2013-05-02 12:02:00,88.0,70.0,-100.00,NE,42,4.0,13.0,56,0.00,,,0.01,336.000000,,2013-05-02 22:02:00,
2013-05-02 12:12:00,88.0,70.0,-100.00,NE,42,4.0,13.0,56,0.00,,,0.01,336.000000,,2013-05-02 22:12:00,
2013-05-02 12:22:00,88.0,70.0,-100.00,NE,42,4.0,13.0,56,0.00,,,0.01,336.000000,,2013-05-02 22:22:00,
2013-05-02 12:32:00,88.0,70.0,-100.00,NE,42,4.0,13.0,56,0.00,,,0.01,336.000000,,2013-05-02 22:32:00,
2013-05-02 13:02:00,87.0,65.0,-100.00,NE,54,4.0,9.0,49,0.00,,,0.01,273.000000,,2013-05-02 23:02:00,
2013-05-02 13:11:00,87.0,65.0,-100.00,NE,54,4.0,9.0,49,0.00,,,0.01,273.000000,,2013-05-02 23:11:00,
2013-05-02 13:22:00,87.0,65.0,-100.00,NE,54,4.0,9.0,49,0.00,,,0.01,273.000000,,2013-05-02 23:22:00,
2013-05-02 13:31:00,87.0,65.0,-100.00,NE,54,4.0,9.0,49,0.00,,,0.01,273.000000,,2013-05-02 23:31:00,
2013-05-02 14:01:00,85.0,70.0,-100.00,NE,54,4.0,12.0,62,0.00,,,0.01,119.000000,,2013-05-03 00:01:00,
2013-05-02 14:11:00,85.0,70.0,-100.00,NE,54,4.0,12.0,62,0.00,,,0.01,119.000000,,2013-05-03 00:11:00,
2013-05-02 14:21:00,85.0,70.0,-100.00,NE,54,4.0,12.0,62,0.00,,,0.01,119.000000,,2013-05-03 00:21:00,
2013-05-02 14:31:00,85.0,70.0,-100.00,NE,54,4.0,12.0,62,0.00,,,0.01,119.000000,,2013-05-03 00:31:00,
2013-05-02 15:01:00,83.0,69.0,-100.00,NE,43,6.0,10.0,62,0.00,,,0.01,134.000000,,2013-05-03 01:01:00,
2013-05-02 15:11:00,83.0,69.0,-100.00,NE,43,6.0,10.0,62,0.00,,,0.01,134.000000,,2013-05-03 01:11:00,
2013-05-02 15:21:00,83.0,69.0,-100.00,NE,43,6.0,10.0,62,0.00,,,0.01,134.000000,,2013-05-03 01:21:00,
2013-05-02 15:31:00,83.0,69.0,-100.00,NE,43,6.0,10.0,62,0.00,,,0.01,134.000000,,2013-05-03 01:31:00,
2013-05-02 16:01:00,86.0,68.0,-100.00,NNE,19,4.0,11.0,55,0.01,,,0.02,371.000000,,2013-05-03 02:01:00,
2013-05-02 16:11:00,86.0,68.0,-100.00,NNE,19,4.0,11.0,55,0.01,,,0.02,371.000000,,2013-05-03 02:11:00,
2013-05-02 16:21:00,86.0,68.0,-100.00,NNE,19,4.0,11.0,55,0.01,,,0.02,371.000000,,2013-05-03 02:21:00,
2013-05-02 16:31:00,86.0,68.0,-100.00,NNE,19,4.0,11.0,55,0.01,,,0.02,371.000000,,2013-05-03 02:31:00,
2013-05-02 17:01:00,87.0,64.0,-100.00,NNE,32,5.0,12.0,47,0.00,,,0.02,411.000000,,2013-05-03 03:01:00,
2013-05-02 17:11:00,87.0,64.0,-100.00,NNE,32,5.0,12.0,47,0.00,,,0.02,411.000000,,2013-05-03 03:11:00,
2013-05-02 17:21:00,87.0,64.0,-100.00,NNE,32,5.0,12.0,47,0.00,,,0.02,411.000000,,2013-05-03 03:21:00,
2013-05-02 17:32:00,87.0,64.0,-100.00,NNE,32,5.0,12.0,47,0.00,,,0.02,411.000000,,2013-05-03 03:32:00,
2013-05-02 18:02:00,82.0,66.0,-100.00,NNE,13,6.0,12.0,58,0.00,,,0.02,109.000000,,2013-05-03 04:02:00,
2013-05-02 18:12:00,82.0,66.0,-100.00,NNE,13,6.0,12.0,58,0.00,,,0.02,109.000000,,2013-05-03 04:12:00,
2013-05-02 18:22:00,82.0,66.0,-100.00,NNE,13,6.0,12.0,58,0.00,,,0.02,109.000000,,2013-05-03 04:22:00,
2013-05-02 18:32:00,82.0,66.0,-100.00,NNE,13,6.0,12.0,58,0.00,,,0.02,109.000000,,2013-05-03 04:32:00,
2013-05-02 19:02:00,78.0,64.0,-100.00,North,9,6.0,14.0,63,0.00,,,0.02,39.000000,,2013-05-03 05:02:00,
2013-05-02 19:12:00,78.0,64.0,-100.00,North,9,6.0,14.0,63,0.00,,,0.02,39.000000,,2013-05-03 05:12:00,
2013-05-02 19:21:00,78.0,64.0,-100.00,North,9,6.0,14.0,63,0.00,,,0.02,39.000000,,2013-05-03 05:21:00,
2013-05-02 19:32:00,78.0,64.0,-100.00,North,9,6.0,14.0,63,0.00,,,0.02,39.000000,,2013-05-03 05:32:00,
2013-05-02 20:01:00,77.0,64.0,-100.00,North,6,7.0,12.0,65,0.00,,,0.02,5.000000,,2013-05-03 06:01:00,
2013-05-02 20:11:00,77.0,64.0,-100.00,North,6,7.0,12.0,65,0.00,,,0.02,5.000000,,2013-05-03 06:11:00,
2013-05-02 20:21:00,77.0,64.0,-100.00,North,6,7.0,12.0,65,0.00,,,0.02,5.000000,,2013-05-03 06:21:00,
2013-05-02 20:31:00,77.0,64.0,-100.00,North,6,7.0,12.0,65,0.00,,,0.02,5.000000,,2013-05-03 06:31:00,
2013-05-02 21:01:00,78.0,67.0,-100.00,North,8,7.0,13.0,68,0.00,,,0.02,0.000000,,2013-05-03 07:01:00,
2013-05-02 21:11:00,78.0,67.0,-100.00,North,8,7.0,13.0,68,0.00,,,0.02,0.000000,,2013-05-03 07:11:00,
2013-05-02 21:21:00,78.0,67.0,-100.00,North,8,7.0,13.0,68,0.00,,,0.02,0.000000,,2013-05-03 07:21:00,
2013-05-02 21:31:00,78.0,67.0,-100.00,North,8,7.0,13.0,68,0.00,,,0.02,0.000000,,2013-05-03 07:31:00,
2013-05-02 22:01:00,76.0,64.0,-100.00,North,7,8.0,12.0,66,0.00,,,0.02,1.000000,,2013-05-03 08:01:00,
2013-05-02 22:11:00,76.0,64.0,-100.00,North,7,8.0,12.0,66,0.00,,,0.02,1.000000,,2013-05-03 08:11:00,
2013-05-02 22:21:00,76.0,64.0,-100.00,North,7,8.0,12.0,66,0.00,,,0.02,1.000000,,2013-05-03 08:21:00,
2013-05-02 22:31:00,76.0,64.0,-100.00,North,7,8.0,12.0,66,0.00,,,0.02,1.000000,,2013-05-03 08:31:00,
2013-05-02 23:01:00,77.0,63.0,-100.00,North,8,8.0,14.0,63,0.00,,,0.02,1.000000,,2013-05-03 09:01:00,
2013-05-02 23:11:00,77.0,63.0,-100.00,North,8,8.0,14.0,63,0.00,,,0.02,1.000000,,2013-05-03 09:11:00,
2013-05-02 23:21:00,77.0,63.0,-100.00,North,8,8.0,14.0,63,0.00,,,0.02,1.000000,,2013-05-03 09:21:00,
2013-05-02 23:32:00,77.0,63.0,-100.00,North,8,8.0,14.0,63,0.00,,,0.02,1.000000,,2013-05-03 09:32:00,